Time;durP1;ratioP1;P1;durP2;ratioP2;P2;SDS_P1;SDS_P2;PMS_P1;PMS_P2;Temp;Humidity;BMP_temperature;BMP_pressure;BME280_temperature;BME280_humidity;BME280_pressure;Samples;Min_cycle;Max_cycle;Signal;HPM_P1;HPM_P2
2023/07/23 00:03:24;;;;;;;12.10;8.73;;;;;;;14.70;91.48;99945.03;10154356;29;20138;-77
2023/07/23 00:08:27;;;;;;;16.83;8.20;;;;;;;14.75;91.15;99942.69;10151594;29;20667;-77
2023/07/23 00:13:32;;;;;;;15.25;7.45;;;;;;;14.76;90.96;99939.00;10155884;29;20052;-77
2023/07/23 00:18:35;;;;;;;12.32;7.53;;;;;;;14.61;90.54;99930.63;10151170;29;20050;-76
2023/07/23 00:23:37;;;;;;;11.13;7.93;;;;;;;14.61;91.36;99919.81;10152949;29;20048;-77
2023/07/23 00:28:42;;;;;;;12.73;8.75;;;;;;;14.59;90.86;99911.06;10148149;29;20043;-77
2023/07/23 00:33:45;;;;;;;11.38;8.05;;;;;;;14.51;89.83;99901.03;10143196;29;20045;-77
2023/07/23 00:38:47;;;;;;;11.23;7.15;;;;;;;14.54;90.28;99903.41;10157251;29;20067;-76
2023/07/23 00:43:52;;;;;;;12.23;6.82;;;;;;;14.65;90.08;99896.88;10162945;29;20072;-76
2023/07/23 00:48:55;;;;;;;11.40;6.50;;;;;;;14.49;89.08;99889.53;10165910;29;20048;-77
2023/07/23 00:53:58;;;;;;;14.48;7.55;;;;;;;14.56;90.02;99877.09;10156742;29;20599;-78
2023/07/23 00:59:03;;;;;;;15.80;8.05;;;;;;;14.58;88.98;99869.63;10158921;29;20064;-76
2023/07/23 01:04:06;;;;;;;14.90;8.02;;;;;;;14.59;89.02;99859.69;10179196;29;20074;-76
2023/07/23 01:09:10;;;;;;;10.80;6.97;;;;;;;14.53;88.96;99863.03;10160739;29;20043;-76
2023/07/23 01:14:14;;;;;;;14.43;7.55;;;;;;;14.51;88.83;99848.84;10151901;29;20073;-77
2023/07/23 01:19:17;;;;;;;12.93;7.90;;;;;;;14.59;89.55;99849.72;10164135;29;20066;-77
2023/07/23 01:24:22;;;;;;;9.57;6.90;;;;;;;14.54;88.89;99837.72;10149298;29;20501;-77
2023/07/23 01:29:25;;;;;;;11.88;7.40;;;;;;;14.46;88.64;99829.56;10150035;29;20128;-76
2023/07/23 01:34:28;;;;;;;10.48;7.35;;;;;;;14.47;88.67;99817.75;10162970;29;20071;-76
2023/07/23 01:39:33;;;;;;;10.65;7.55;;;;;;;14.46;88.05;99816.91;10147456;29;20127;-77
2023/07/23 01:44:36;;;;;;;14.10;7.63;;;;;;;14.30;86.54;99812.25;10155243;29;20641;-77
2023/07/23 01:49:39;;;;;;;15.20;7.40;;;;;;;14.30;86.43;99800.59;10153690;29;20041;-76
2023/07/23 01:54:43;;;;;;;13.52;6.93;;;;;;;14.40;87.50;99793.25;10143060;29;20108;-76
2023/07/23 01:59:47;;;;;;;11.07;6.90;;;;;;;14.47;87.26;99788.03;10143713;29;20128;-76
2023/07/23 02:04:50;;;;;;;11.50;6.38;;;;;;;14.35;86.72;99784.75;10147605;29;20048;-76
2023/07/23 02:09:55;;;;;;;15.07;7.15;;;;;;;14.32;86.03;99782.38;10147934;29;20131;-77
2023/07/23 02:14:58;;;;;;;11.68;6.38;;;;;;;14.37;85.77;99780.88;10143201;29;20048;-77
2023/07/23 02:20:00;;;;;;;11.32;6.47;;;;;;;14.36;85.20;99779.16;10161613;29;20040;-77
2023/07/23 02:25:05;;;;;;;11.00;6.40;;;;;;;14.42;85.89;99769.59;10148533;29;20416;-76
2023/07/23 02:30:09;;;;;;;10.50;6.28;;;;;;;14.36;85.17;99751.31;10151336;29;20049;-77
2023/07/23 02:35:12;;;;;;;10.68;5.75;;;;;;;14.20;84.53;99748.56;10152215;29;20058;-77
2023/07/23 02:40:17;;;;;;;10.55;7.07;;;;;;;14.22;84.41;99750.09;10152461;29;20045;-76
2023/07/23 02:45:21;;;;;;;11.35;6.20;;;;;;;14.25;84.03;99746.22;10149426;29;20107;-77
2023/07/23 02:50:25;;;;;;;11.65;6.65;;;;;;;14.28;83.74;99749.41;10149575;29;20062;-77
2023/07/23 02:55:30;;;;;;;12.07;7.20;;;;;;;14.30;83.84;99738.47;10151225;29;20045;-76
2023/07/23 03:00:33;;;;;;;13.90;7.50;;;;;;;14.33;84.19;99732.72;10155378;29;20048;-77
2023/07/23 03:05:37;;;;;;;9.68;6.78;;;;;;;14.38;84.44;99725.84;10155859;29;20048;-77
2023/07/23 03:10:42;;;;;;;13.25;8.50;;;;;;;14.35;84.29;99723.47;10149849;29;20090;-77
2023/07/23 03:15:45;;;;;;;15.70;9.38;;;;;;;14.31;83.63;99716.69;10157828;29;20119;-77
2023/07/23 03:20:48;;;;;;;15.25;9.45;;;;;;;14.30;83.90;99709.59;10147630;29;20135;-75
2023/07/23 03:25:52;;;;;;;16.10;10.23;;;;;;;14.36;84.00;99703.53;10150359;29;20060;-75
2023/07/23 03:30:55;;;;;;;15.98;9.52;;;;;;;14.36;83.86;99691.88;10167470;29;20050;-76
2023/07/23 03:35:58;;;;;;;14.57;10.07;;;;;;;14.30;83.30;99696.09;10172582;29;20056;-75
2023/07/23 03:41:03;;;;;;;16.05;8.82;;;;;;;14.27;83.36;99682.91;10150767;29;20470;-76
2023/07/23 03:46:05;;;;;;;16.52;9.70;;;;;;;14.26;83.76;99685.75;10147420;29;20048;-75
2023/07/23 03:51:08;;;;;;;14.60;9.40;;;;;;;14.32;84.14;99674.31;10146995;29;20051;-76
2023/07/23 03:56:13;;;;;;;15.95;9.32;;;;;;;14.29;84.04;99666.53;10153601;29;20605;-75
2023/07/23 04:01:15;;;;;;;14.05;9.00;;;;;;;14.36;85.02;99662.16;10148192;29;20519;-76
2023/07/23 04:06:18;;;;;;;21.88;11.63;;;;;;;14.32;84.59;99656.25;10155036;29;20092;-76
2023/07/23 04:11:23;;;;;;;12.38;9.02;;;;;;;14.37;85.02;99655.72;10151756;29;20132;-76
2023/07/23 04:16:25;;;;;;;15.80;8.60;;;;;;;14.36;85.28;99643.25;10142837;29;20056;-76
2023/07/23 04:21:29;;;;;;;16.67;9.23;;;;;;;14.30;84.03;99631.25;10153237;29;20091;-75
2023/07/23 04:26:33;;;;;;;17.67;8.60;;;;;;;14.34;84.38;99627.22;10149462;29;20044;-76
2023/07/23 04:31:37;;;;;;;25.15;9.57;;;;;;;14.30;83.64;99633.94;10146301;29;20044;-75
2023/07/23 04:36:40;;;;;;;13.93;7.78;;;;;;;14.40;83.25;99622.16;10158266;29;20040;-75
2023/07/23 04:41:44;;;;;;;15.10;8.07;;;;;;;14.50;82.91;99618.28;10139913;29;20036;-77
2023/07/23 04:46:47;;;;;;;19.05;7.95;;;;;;;14.62;83.09;99620.66;10143513;29;20048;-76
2023/07/23 04:51:50;;;;;;;14.13;8.35;;;;;;;14.68;82.64;99614.59;10148801;29;20044;-76
2023/07/23 04:56:54;;;;;;;13.07;7.88;;;;;;;14.78;82.80;99613.41;10152201;29;20493;-76
2023/07/23 05:01:58;;;;;;;14.48;7.70;;;;;;;14.75;82.33;99607.47;10156803;29;20087;-76
2023/07/23 05:07:02;;;;;;;18.35;7.60;;;;;;;14.92;83.38;99609.16;10149483;29;20059;-76
2023/07/23 05:12:07;;;;;;;13.52;7.80;;;;;;;14.94;82.71;99603.56;10146561;29;20048;-76
2023/07/23 05:17:11;;;;;;;9.63;8.38;;;;;;;15.10;82.97;99608.94;10142476;29;20044;-76
2023/07/23 05:22:14;;;;;;;15.05;7.43;;;;;;;15.12;81.61;99596.09;10154296;29;20036;-76
2023/07/23 05:27:18;;;;;;;13.15;7.70;;;;;;;15.43;84.20;99598.06;10153155;29;20096;-75
2023/07/23 05:32:21;;;;;;;14.20;6.63;;;;;;;15.64;82.54;99600.19;10165847;29;20040;-76
2023/07/23 05:37:24;;;;;;;19.02;7.47;;;;;;;15.81;81.45;99590.09;10151512;29;20550;-76
2023/07/23 05:42:28;;;;;;;11.43;6.28;;;;;;;16.06;80.34;99583.50;10157821;29;20059;-75
2023/07/23 05:47:31;;;;;;;11.48;6.43;;;;;;;16.26;80.35;99577.66;10153010;29;20055;-76
2023/07/23 05:52:34;;;;;;;12.25;5.85;;;;;;;16.31;75.96;99580.66;10156765;29;20135;-76
2023/07/23 05:57:38;;;;;;;11.27;5.85;;;;;;;16.49;76.20;99572.22;10161681;29;20052;-76
2023/07/23 06:02:41;;;;;;;9.98;6.05;;;;;;;16.52;71.66;99569.97;10154796;29;20040;-76
2023/07/23 06:07:44;;;;;;;7.20;4.85;;;;;;;16.74;72.02;99570.13;10162608;29;20054;-76
2023/07/23 06:12:48;;;;;;;7.47;5.22;;;;;;;16.62;67.88;99560.75;10152993;29;20083;-76
2023/07/23 06:17:51;;;;;;;9.38;5.43;;;;;;;16.81;69.17;99563.78;10146164;29;20044;-76
2023/07/23 06:22:54;;;;;;;6.72;4.97;;;;;;;16.75;66.81;99561.78;10162184;29;20048;-76
2023/07/23 06:27:59;;;;;;;6.85;4.82;;;;;;;16.85;65.66;99555.28;10161133;29;20120;-76
2023/07/23 06:33:01;;;;;;;7.10;4.63;;;;;;;17.03;64.23;99559.31;10157073;29;20045;-76
2023/07/23 06:38:04;;;;;;;9.90;5.28;;;;;;;17.16;63.52;99557.84;10164893;29;20056;-75
2023/07/23 06:43:09;;;;;;;9.32;4.07;;;;;;;17.22;62.33;99541.69;10164549;29;20044;-75
2023/07/23 06:48:12;;;;;;;14.20;5.28;;;;;;;17.66;62.53;99542.63;10154521;29;20040;-76
2023/07/23 06:53:15;;;;;;;8.50;4.40;;;;;;;17.84;60.91;99545.75;10158587;29;20047;-75
2023/07/23 06:58:19;;;;;;;11.13;5.35;;;;;;;17.95;60.82;99530.84;10167363;29;20059;-75
2023/07/23 07:03:24;;;;;;;8.35;4.40;;;;;;;18.07;60.61;99540.19;10173706;29;20054;-76
2023/07/23 07:08:28;;;;;;;6.65;4.53;;;;;;;18.30;59.47;99534.56;10160807;29;20040;-75
2023/07/23 07:13:34;;;;;;;5.00;3.90;;;;;;;18.30;58.68;99533.72;10154057;29;20048;-75
2023/07/23 07:18:37;;;;;;;6.07;4.25;;;;;;;18.71;58.91;99536.56;10159762;29;20070;-75
2023/07/23 07:23:40;;;;;;;6.57;4.93;;;;;;;18.87;58.15;99523.69;10150886;29;20044;-75
2023/07/23 07:28:44;;;;;;;3.08;2.40;;;;;;;18.87;57.38;99529.16;10157497;29;20059;-75
2023/07/23 07:33:47;;;;;;;4.22;2.95;;;;;;;18.58;56.25;99526.41;10152962;29;20048;-74
2023/07/23 07:38:50;;;;;;;6.30;4.13;;;;;;;19.13;55.63;99526.59;10151879;29;20057;-75
2023/07/23 07:43:54;;;;;;;4.75;4.07;;;;;;;19.49;54.67;99517.34;10155559;29;20464;-75
2023/07/23 07:48:57;;;;;;;6.05;2.60;;;;;;;18.92;54.59;99518.50;10155222;29;20056;-75
2023/07/23 07:54:00;;;;;;;9.15;3.47;;;;;;;19.15;52.99;99520.97;10154282;29;20059;-75
2023/07/23 07:59:05;;;;;;;7.15;3.70;;;;;;;19.12;52.89;99503.16;10155967;29;20078;-75
2023/07/23 08:04:10;;;;;;;2.92;2.38;;;;;;;19.83;50.47;99521.91;10149695;29;20059;-75
2023/07/23 08:09:17;;;;;;;8.23;2.92;;;;;;;19.80;50.88;99513.28;10150569;29;20036;-74
2023/07/23 08:14:22;;;;;;;4.53;3.90;;;;;;;20.22;50.77;99500.34;10154424;29;20075;-74
2023/07/23 08:19:26;;;;;;;6.78;3.97;;;;;;;19.93;50.28;99507.03;10151606;29;20040;-74
2023/07/23 08:24:29;;;;;;;9.23;2.70;;;;;;;19.74;50.74;99505.94;10150921;29;20044;-74
2023/07/23 08:29:35;;;;;;;5.88;3.88;;;;;;;20.39;50.21;99503.53;10162538;29;20112;-74
2023/07/23 08:34:38;;;;;;;5.97;3.95;;;;;;;20.44;49.75;99506.47;10163426;29;20482;-74
2023/07/23 08:39:41;;;;;;;4.88;3.75;;;;;;;20.42;49.66;99509.41;10171464;29;20049;-74
2023/07/23 08:45:23;;;;;;;5.53;3.55;;;;;;;20.33;49.50;99507.94;10162090;29;20044;-74
2023/07/23 08:50:28;;;;;;;4.73;3.60;;;;;;;20.89;48.36;99509.34;10105140;29;20511;-75
2023/07/23 08:55:31;;;;;;;6.13;3.10;;;;;;;21.01;47.42;99511.22;10171808;29;20052;-77
2023/07/23 09:00:35;;;;;;;4.47;3.05;;;;;;;20.81;47.48;99504.13;10179501;29;20060;-74
2023/07/23 09:05:39;;;;;;;4.47;2.35;;;;;;;19.99;48.12;99503.47;10183733;29;20056;-74
2023/07/23 09:10:42;;;;;;;8.25;3.67;;;;;;;20.09;47.55;99517.53;10177131;29;20047;-74
2023/07/23 09:15:54;;;;;;;2.75;2.47;;;;;;;19.92;46.85;99521.72;10171838;29;20044;-75
2023/07/23 09:20:59;;;;;;;3.53;2.57;;;;;;;20.12;47.12;99512.50;10180172;29;20059;-75
2023/07/23 09:26:02;;;;;;;5.57;3.05;;;;;;;20.41;46.75;99512.34;10170445;29;20078;-75
2023/07/23 09:31:05;;;;;;;3.20;2.90;;;;;;;21.10;46.48;99530.13;10174631;29;20108;-75
2023/07/23 09:36:09;;;;;;;4.00;3.38;;;;;;;21.08;46.11;99532.22;10174603;29;20516;-75
2023/07/23 09:41:12;;;;;;;3.60;3.30;;;;;;;20.26;48.11;99532.44;10169825;29;20064;-75
2023/07/23 09:46:15;;;;;;;5.72;3.40;;;;;;;21.17;47.64;99537.25;10169211;29;20135;-75
2023/07/23 09:51:20;;;;;;;5.88;2.40;;;;;;;19.30;53.56;99599.78;10163828;29;20104;-75
2023/07/23 09:56:23;;;;;;;4.13;1.95;;;;;;;18.46;59.57;99592.44;10163850;29;20056;-75
2023/07/23 10:01:27;;;;;;;2.38;2.17;;;;;;;17.00;64.59;99603.09;10169366;29;20377;-75
2023/07/23 10:06:32;;;;;;;4.28;2.22;;;;;;;16.99;65.22;99617.69;10164076;29;20039;-74
2023/07/23 10:11:35;;;;;;;4.35;2.38;;;;;;;16.34;71.23;99620.94;10177750;29;20502;-75
2023/07/23 10:16:39;;;;;;;5.72;3.70;;;;;;;16.06;76.91;99624.16;10153844;29;20680;-74
2023/07/23 10:21:49;;;;;;;4.00;2.78;;;;;;;15.38;80.99;99624.78;10172130;29;20067;-74
2023/07/23 10:26:54;;;;;;;5.35;3.85;;;;;;;15.90;81.81;99616.09;10159442;29;20103;-75
2023/07/23 10:32:23;;;;;;;4.90;3.63;;;;;;;16.29;78.57;99602.53;10164725;29;20039;-74
2023/07/23 10:37:27;;;;;;;3.78;3.45;;;;;;;16.91;75.99;99603.34;10157978;29;20091;-75
2023/07/23 10:42:38;;;;;;;5.28;3.20;;;;;;;17.50;73.83;99594.41;10157566;29;20156;-73
2023/07/23 10:47:48;;;;;;;5.32;3.75;;;;;;;17.99;72.47;99589.22;10150754;29;20048;-76
2023/07/23 10:52:53;;;;;;;4.53;3.30;;;;;;;18.80;68.79;99583.53;10153305;29;20051;-75
2023/07/23 10:57:56;;;;;;;4.10;3.35;;;;;;;18.78;66.03;99588.31;10162806;29;20476;-76
2023/07/23 11:02:59;;;;;;;5.90;2.53;;;;;;;18.68;63.13;99585.91;10171698;29;20496;-76
2023/07/23 11:08:18;;;;;;;3.10;1.55;;;;;;;18.26;60.01;99576.72;10162596;29;20047;-76
2023/07/23 11:13:21;;;;;;;2.97;2.17;;;;;;;18.03;58.82;99595.94;10154536;29;20064;-75
2023/07/23 11:18:25;;;;;;;4.13;2.00;;;;;;;18.52;57.36;99599.78;10157537;29;20136;-75
2023/07/23 11:23:29;;;;;;;4.05;1.90;;;;;;;18.39;57.88;99607.81;10149669;29;20047;-75
2023/07/23 11:28:34;;;;;;;3.72;1.90;;;;;;;18.17;57.89;99631.44;10152828;29;20107;-75
2023/07/23 11:33:37;;;;;;;2.83;1.70;;;;;;;18.49;56.94;99617.34;10157355;29;20120;-75
2023/07/23 11:38:42;;;;;;;2.83;1.55;;;;;;;18.56;56.80;99645.41;10154690;29;20078;-75
2023/07/23 11:43:45;;;;;;;1.63;1.35;;;;;;;18.20;60.11;99636.47;10162083;29;20036;-75
2023/07/23 11:48:48;;;;;;;1.60;1.23;;;;;;;18.06;61.05;99635.47;10162435;29;20051;-75
2023/07/23 11:53:53;;;;;;;1.63;1.33;;;;;;;18.24;60.36;99613.28;10157678;29;20497;-75
2023/07/23 11:58:55;;;;;;;1.73;1.50;;;;;;;18.66;58.59;99680.47;10148562;29;20045;-75
2023/07/23 12:04:00;;;;;;;1.42;1.10;;;;;;;18.45;59.84;99612.47;10154158;29;20044;-75
2023/07/23 12:09:08;;;;;;;2.45;1.40;;;;;;;18.38;60.29;99630.63;10147596;29;20138;-75
2023/07/23 12:14:15;;;;;;;2.75;1.50;;;;;;;18.34;61.39;99625.53;10146563;29;20123;-76
2023/07/23 12:19:20;;;;;;;3.13;1.75;;;;;;;18.34;61.69;99611.94;10154621;29;20419;-75
2023/07/23 12:24:26;;;;;;;2.55;1.90;;;;;;;19.10;60.07;99600.50;10137252;29;20040;-75
2023/07/23 12:29:29;;;;;;;4.80;2.42;;;;;;;18.48;61.01;99599.31;10148994;29;20049;-75
2023/07/23 12:34:32;;;;;;;2.33;1.88;;;;;;;18.57;61.05;99606.31;10156382;29;20123;-75
2023/07/23 12:39:36;;;;;;;3.03;1.65;;;;;;;18.80;60.22;99616.16;10157295;29;20416;-75
2023/07/23 12:44:39;;;;;;;1.70;1.60;;;;;;;18.51;61.30;99606.25;10153688;29;20131;-75
2023/07/23 12:49:42;;;;;;;3.88;2.25;;;;;;;17.63;67.41;99622.59;10151565;29;20722;-75
2023/07/23 12:54:46;;;;;;;4.85;2.03;;;;;;;17.14;74.09;99623.19;10161982;29;20055;-75
2023/07/23 12:59:50;;;;;;;3.55;2.88;;;;;;;16.64;79.77;99634.63;10147721;29;20052;-74
2023/07/23 13:04:53;;;;;;;3.38;3.08;;;;;;;16.93;77.52;99629.28;10176320;29;20083;-74
2023/07/23 13:09:58;;;;;;;2.60;2.28;;;;;;;17.72;75.53;99630.63;10160554;29;20043;-74
2023/07/23 13:15:00;;;;;;;3.42;2.90;;;;;;;18.06;75.29;99633.59;10163686;29;20622;-74
2023/07/23 13:20:05;;;;;;;2.83;2.53;;;;;;;18.22;73.54;99637.97;10158029;29;20099;-74
2023/07/23 13:25:10;;;;;;;3.80;2.72;;;;;;;18.26;73.66;99650.13;10155928;29;20060;-74
2023/07/23 13:30:13;;;;;;;8.02;3.05;;;;;;;16.73;79.69;99652.50;10154215;29;20044;-73
2023/07/23 13:35:16;;;;;;;4.65;3.22;;;;;;;17.02;83.53;99647.16;10152067;29;20040;-74
2023/07/23 13:40:20;;;;;;;4.13;2.63;;;;;;;16.81;82.74;99650.56;10159082;29;20040;-74
2023/07/23 13:45:23;;;;;;;2.97;2.78;;;;;;;17.02;83.19;99643.59;10149721;29;20071;-74
2023/07/23 13:50:26;;;;;;;3.67;2.95;;;;;;;16.96;83.69;99641.63;10156040;29;20048;-74
2023/07/23 13:55:48;;;;;;;3.05;2.65;;;;;;;16.81;83.57;99639.72;10156987;29;20032;-74
2023/07/23 14:00:54;;;;;;;2.92;2.65;;;;;;;16.96;82.75;99637.03;10156584;29;20040;-74
2023/07/23 14:05:57;;;;;;;3.90;2.85;;;;;;;16.61;84.10;99640.41;10157790;29;20044;-74
2023/07/23 14:11:01;;;;;;;7.70;4.25;;;;;;;16.32;87.50;99650.13;10150534;29;21352;-74
2023/07/23 14:16:04;;;;;;;4.78;4.22;;;;;;;16.15;89.05;99636.63;10158151;29;20044;-74
2023/07/23 14:21:07;;;;;;;5.15;4.13;;;;;;;16.51;88.98;99637.94;10147445;29;20083;-73
2023/07/23 14:26:11;;;;;;;4.75;3.60;;;;;;;16.70;88.20;99623.03;10150433;29;20912;-75
2023/07/23 14:31:14;;;;;;;4.60;4.13;;;;;;;17.24;86.77;99626.44;10157966;29;20545;-74
2023/07/23 14:36:17;;;;;;;5.57;3.42;;;;;;;16.97;84.57;99625.16;10157237;29;20069;-74
2023/07/23 14:41:21;;;;;;;3.78;3.17;;;;;;;17.08;84.83;99626.56;10154180;29;20075;-74
2023/07/23 14:46:24;;;;;;;5.03;3.47;;;;;;;17.53;83.77;99616.63;10158219;29;20509;-75
2023/07/23 14:51:27;;;;;;;3.85;3.53;;;;;;;18.36;79.89;99612.59;10160755;29;20044;-75
2023/07/23 14:56:32;;;;;;;3.60;3.30;;;;;;;18.72;78.07;99603.50;10156105;29;20197;-75
2023/07/23 15:01:35;;;;;;;3.85;2.80;;;;;;;18.19;78.65;99616.63;10171242;29;20053;-74
2023/07/23 15:06:40;;;;;;;2.97;2.78;;;;;;;18.12;78.33;99619.25;10168625;29;20056;-74
2023/07/23 15:11:45;;;;;;;2.78;2.58;;;;;;;17.89;78.08;99613.94;10149807;29;20505;-75
2023/07/23 15:16:48;;;;;;;4.07;3.08;;;;;;;17.34;80.90;99626.16;10162818;29;20043;-74
2023/07/23 15:21:52;;;;;;;3.83;2.75;;;;;;;17.34;80.97;99628.88;10170634;29;20143;-73
2023/07/23 15:27:02;;;;;;;3.80;3.50;;;;;;;17.30;82.58;99618.59;10152938;29;20131;-74
2023/07/23 15:32:06;;;;;;;3.65;3.17;;;;;;;17.22;82.66;99625.81;10154740;29;20124;-74
2023/07/23 15:37:10;;;;;;;2.83;2.60;;;;;;;17.31;81.63;99617.56;10156853;29;20056;-75
2023/07/23 15:42:15;;;;;;;3.22;2.92;;;;;;;18.05;79.67;99607.47;10160804;29;20527;-75
2023/07/23 15:47:18;;;;;;;2.95;2.67;;;;;;;18.40;76.18;99599.44;10152016;29;20051;-75
2023/07/23 15:52:21;;;;;;;3.45;2.53;;;;;;;18.98;74.07;99586.59;10155332;29;20036;-76
2023/07/23 15:57:25;;;;;;;3.03;2.47;;;;;;;18.78;72.99;99591.88;10165599;29;20506;-75
2023/07/23 16:02:29;;;;;;;2.25;2.05;;;;;;;18.89;73.12;99584.22;10158847;29;20036;-75
2023/07/23 16:07:32;;;;;;;2.42;2.22;;;;;;;18.86;72.20;99592.78;10159914;29;20040;-75
2023/07/23 16:12:36;;;;;;;3.40;2.40;;;;;;;19.07;70.98;99581.00;10158887;29;20415;-75
2023/07/23 16:17:39;;;;;;;2.72;2.03;;;;;;;19.45;69.89;99570.53;10150353;29;20420;-76
2023/07/23 16:22:42;;;;;;;2.42;2.00;;;;;;;19.03;70.24;99572.38;10146361;29;20044;-75
2023/07/23 16:27:46;;;;;;;2.08;1.95;;;;;;;19.04;70.05;99557.75;10150817;29;20052;-75
2023/07/23 16:32:50;;;;;;;1.90;1.70;;;;;;;19.66;68.51;99545.09;10155085;29;20071;-74
2023/07/23 16:37:56;;;;;;;2.88;1.95;;;;;;;20.01;67.06;99539.53;10157259;29;20048;-76
2023/07/23 16:43:03;;;;;;;1.80;1.70;;;;;;;20.35;65.84;99535.84;10156670;29;20064;-75
2023/07/23 16:48:06;;;;;;;1.83;1.73;;;;;;;21.38;62.03;99533.38;10153256;29;20639;-74
2023/07/23 16:53:09;;;;;;;2.00;1.90;;;;;;;21.77;61.82;99528.84;10156136;29;20419;-75
2023/07/23 16:58:13;;;;;;;1.83;1.73;;;;;;;22.75;58.08;99513.84;10142984;29;20075;-75
2023/07/23 17:03:16;;;;;;;2.28;2.08;;;;;;;22.65;56.85;99517.06;10151871;29;20052;-75
2023/07/23 17:08:19;;;;;;;2.63;2.28;;;;;;;20.33;63.43;99521.56;10161427;29;20132;-75
2023/07/23 17:13:24;;;;;;;2.10;1.90;;;;;;;19.70;65.21;99523.75;10154251;29;20064;-75
2023/07/23 17:18:26;;;;;;;2.90;2.17;;;;;;;19.87;65.11;99527.75;10158865;29;20040;-75
2023/07/23 17:23:29;;;;;;;3.53;2.67;;;;;;;19.70;65.50;99521.84;10154194;29;20032;-75
2023/07/23 17:28:33;;;;;;;2.78;2.45;;;;;;;19.96;64.94;99515.63;10160239;29;20048;-75
2023/07/23 17:33:36;;;;;;;2.92;2.30;;;;;;;20.09;64.04;99504.75;10157751;29;20119;-75
2023/07/23 17:38:39;;;;;;;2.55;2.33;;;;;;;20.07;64.02;99512.28;10152612;29;20044;-75
2023/07/23 17:43:45;;;;;;;1.70;1.60;;;;;;;19.86;64.41;99526.94;10155692;29;20099;-74
2023/07/23 17:48:49;;;;;;;2.88;1.90;;;;;;;19.74;64.64;99495.03;10165184;29;20071;-75
2023/07/23 17:53:51;;;;;;;3.08;1.95;;;;;;;19.90;64.21;99497.38;10154897;29;20048;-74
2023/07/23 17:58:56;;;;;;;1.88;1.77;;;;;;;20.09;63.36;99487.53;10156826;29;20049;-75
2023/07/23 18:04:00;;;;;;;2.95;2.00;;;;;;;20.11;62.83;99494.47;10151051;29;20492;-74
2023/07/23 18:09:03;;;;;;;1.63;1.52;;;;;;;20.45;61.99;99478.97;10147647;29;20104;-74
2023/07/23 18:14:08;;;;;;;2.60;1.95;;;;;;;20.71;61.07;99488.19;10156109;29;20052;-74
2023/07/23 18:19:11;;;;;;;2.20;2.00;;;;;;;20.15;63.23;99488.59;10161935;29;20055;-75
2023/07/23 18:24:13;;;;;;;1.73;1.63;;;;;;;19.97;64.08;99479.16;10154219;29;20044;-74
2023/07/23 18:29:18;;;;;;;2.05;1.70;;;;;;;19.83;63.88;99469.28;10157962;29;20104;-76
2023/07/23 18:34:21;;;;;;;2.45;1.90;;;;;;;19.76;64.50;99466.53;10145993;29;20032;-76
2023/07/23 18:39:24;;;;;;;2.35;1.80;;;;;;;19.91;64.19;99463.63;10156168;29;20520;-75
2023/07/23 18:44:28;;;;;;;2.88;1.60;;;;;;;19.65;65.26;99456.25;10153132;29;20134;-75
2023/07/23 18:49:31;;;;;;;4.10;2.05;;;;;;;19.68;65.42;99459.38;10160149;29;20063;-75
2023/07/23 18:54:34;;;;;;;3.65;2.08;;;;;;;19.45;65.96;99459.72;10155333;29;20117;-75
2023/07/23 18:59:38;;;;;;;2.92;2.30;;;;;;;19.50;66.27;99444.63;10151767;29;20564;-75
2023/07/23 19:04:42;;;;;;;2.42;2.22;;;;;;;19.55;65.86;99444.88;10157838;29;20088;-75
2023/07/23 19:09:48;;;;;;;2.08;1.95;;;;;;;19.48;65.98;99439.41;10165452;29;20104;-75
2023/07/23 19:14:53;;;;;;;1.98;1.88;;;;;;;19.34;66.24;99449.44;10151377;29;20382;-74
2023/07/23 19:19:56;;;;;;;2.35;2.13;;;;;;;19.53;65.29;99436.06;10159153;29;20079;-74
2023/07/23 19:24:59;;;;;;;2.15;1.92;;;;;;;19.72;64.76;99429.00;10154255;29;20040;-75
2023/07/23 19:30:04;;;;;;;2.30;2.10;;;;;;;19.61;65.00;99439.47;10151254;29;20071;-75
2023/07/23 19:35:08;;;;;;;3.00;2.70;;;;;;;19.65;65.05;99431.72;10147855;29;20060;-75
2023/07/23 19:40:12;;;;;;;3.72;2.40;;;;;;;19.62;64.81;99430.25;10155248;29;20078;-75
2023/07/23 19:45:16;;;;;;;2.90;2.60;;;;;;;19.52;65.15;99426.22;10158644;29;20052;-75
2023/07/23 19:50:19;;;;;;;3.33;2.30;;;;;;;19.56;64.72;99427.53;10148136;29;20052;-74
2023/07/23 19:55:22;;;;;;;3.45;2.58;;;;;;;19.43;65.42;99426.41;10145332;29;20044;-75
2023/07/23 20:00:29;;;;;;;3.45;2.28;;;;;;;19.60;64.71;99418.72;10156803;29;20048;-76
2023/07/23 20:05:32;;;;;;;4.60;2.08;;;;;;;19.31;65.89;99419.03;10148941;29;20043;-76
2023/07/23 20:10:36;;;;;;;1.77;1.67;;;;;;;19.17;66.11;99429.03;10152127;29;20068;-75
2023/07/23 20:15:44;;;;;;;2.33;2.03;;;;;;;19.35;65.67;99439.38;10152292;29;20111;-76
2023/07/23 20:20:48;;;;;;;1.98;1.70;;;;;;;18.95;66.65;99452.81;10152041;29;20063;-75
2023/07/23 20:25:51;;;;;;;9.45;3.22;;;;;;;17.10;100.00;99480.72;10149650;29;20372;-74
2023/07/23 20:30:56;;;;;;;9.80;3.38;;;;;;;16.16;100.00;99464.09;10159360;29;20068;-74
2023/07/23 20:36:00;;;;;;;8.07;3.05;;;;;;;16.34;97.90;99463.78;10144616;29;20042;-75
2023/07/23 20:41:04;;;;;;;2.75;2.45;;;;;;;16.34;97.39;99466.47;10158914;29;20047;-75
2023/07/23 20:46:08;;;;;;;4.53;2.97;;;;;;;16.74;97.85;99475.22;10158278;29;20094;-75
2023/07/23 20:51:11;;;;;;;3.58;2.63;;;;;;;16.67;96.77;99468.84;10150398;29;20044;-76
2023/07/23 20:56:16;;;;;;;3.03;2.67;;;;;;;16.63;96.24;99472.97;10161172;29;20036;-76
2023/07/23 21:01:20;;;;;;;4.75;3.05;;;;;;;16.68;97.10;99474.09;10154227;29;20048;-76
2023/07/23 21:06:23;;;;;;;4.38;3.00;;;;;;;16.78;97.39;99462.97;10161837;29;20493;-75
2023/07/23 21:11:26;;;;;;;3.53;2.17;;;;;;;16.97;96.40;99464.28;10163763;29;20091;-76
2023/07/23 21:16:31;;;;;;;2.28;2.08;;;;;;;17.18;95.65;99461.66;10155797;29;20103;-76
2023/07/23 21:21:34;;;;;;;2.20;2.00;;;;;;;17.01;95.55;99471.00;10161423;29;20054;-76
2023/07/23 21:26:40;;;;;;;3.67;2.60;;;;;;;17.19;94.44;99462.50;10161368;29;20390;-76
2023/07/23 21:31:45;;;;;;;4.88;2.22;;;;;;;17.22;91.73;99468.41;10157989;29;20055;-77
2023/07/23 21:36:48;;;;;;;2.72;1.95;;;;;;;16.91;92.65;99465.88;10146942;29;20051;-76
2023/07/23 21:41:51;;;;;;;2.63;2.42;;;;;;;17.07;93.20;99453.13;10159440;29;20068;-76
2023/07/23 21:46:55;;;;;;;2.65;2.10;;;;;;;16.93;93.07;99452.97;10157882;29;20044;-77
2023/07/23 21:51:58;;;;;;;3.03;2.83;;;;;;;16.75;94.66;99449.78;10150886;29;20108;-77
2023/07/23 21:57:01;;;;;;;1.73;1.60;;;;;;;16.72;94.20;99453.72;10152558;29;20037;-77
2023/07/23 22:02:06;;;;;;;3.00;2.67;;;;;;;16.95;93.24;99447.34;10159600;29;20111;-76
2023/07/23 22:07:09;;;;;;;2.35;2.15;;;;;;;16.75;94.23;99434.34;10160678;29;20040;-78
2023/07/23 22:12:12;;;;;;;3.67;2.75;;;;;;;16.94;94.11;99446.50;10153557;29;20095;-78
2023/07/23 22:17:16;;;;;;;2.75;2.55;;;;;;;16.88;94.89;99446.41;10142897;29;20561;-76
2023/07/23 22:22:19;;;;;;;3.45;3.15;;;;;;;16.78;94.46;99433.13;10156587;29;20051;-76
2023/07/23 22:27:25;;;;;;;3.08;2.80;;;;;;;16.63;95.50;99432.31;10156297;29;20045;-76
2023/07/23 22:32:29;;;;;;;4.15;3.25;;;;;;;16.73;94.27;99436.44;10157392;29;20047;-76
2023/07/23 22:37:35;;;;;;;3.97;3.33;;;;;;;16.92;94.31;99436.88;10142364;29;20128;-75
2023/07/23 22:42:38;;;;;;;3.63;3.20;;;;;;;16.67;95.39;99439.03;10152406;29;20079;-76
2023/07/23 22:47:45;;;;;;;3.85;3.40;;;;;;;16.69;95.52;99426.13;10156136;29;20453;-77
2023/07/23 22:52:48;;;;;;;3.20;3.00;;;;;;;16.67;94.92;99428.19;10152997;29;20052;-77
2023/07/23 22:57:51;;;;;;;3.53;3.03;;;;;;;16.16;97.56;99428.88;10145198;29;20051;-75
2023/07/23 23:02:55;;;;;;;3.70;3.38;;;;;;;16.70;95.71;99422.38;10153313;29;20052;-76
2023/07/23 23:07:58;;;;;;;5.13;3.20;;;;;;;16.75;94.57;99422.66;10159697;29;20492;-77
2023/07/23 23:13:01;;;;;;;4.55;3.05;;;;;;;16.68;95.01;99425.31;10160784;29;20515;-77
2023/07/23 23:18:05;;;;;;;4.65;3.58;;;;;;;16.69;95.22;99401.75;10150964;29;20066;-77
2023/07/23 23:23:08;;;;;;;7.22;4.15;;;;;;;16.55;96.11;99406.97;10152252;29;20058;-77
2023/07/23 23:28:11;;;;;;;8.07;5.38;;;;;;;16.59;94.73;99402.00;10158309;29;20135;-76
2023/07/23 23:33:15;;;;;;;6.43;5.00;;;;;;;16.45;94.72;99414.53;10150979;29;20431;-78